• Join FlightAware (Why Join?)
  • Login
  • US Flag 
12:01AM EDT


 

Airport Tracker/Info


-or-


 

Live Flight TrackerFlight Track Log ✈ AWI3778 ✈ 29-Apr-2013 ✈ KBTV - KPHL

Flight Track Log - Related Links

Times and Time Zones

All times are in EDT time to prevent confusion due to time zone crossing. See the AWI3778 flight status page for this flight to view local times or setup timezone preferences in your user account.

Time Position Orientation Groundspeed Altitude Reporting Facility
EDT Latitude Longitude Course Direction KTS MPH feet Rate Location/Type
02:05PM 44.1733 -73.2574 196° South  Level FlightAware Approximate
02:06PM 44.0758 -73.2964 196° South  Level FlightAware Approximate
02:06PM 44.2944 -73.1478 197° South 231 266 8,200  Level Boston Center
02:07PM 43.9783 -73.3354 196° South  Level FlightAware Approximate
02:07PM 44.2256 -73.1758 196° South 254 292 9,900  Level Boston Center
02:08PM 43.8807 -73.3738 195° South  Level FlightAware Approximate
02:08PM 44.1525 -73.2097 198° South 271 312 12,400  Level Boston Center
02:09PM 43.7827 -73.4100 195° South  Level FlightAware Approximate
02:09PM 44.0753 -73.2464 199° South 288 331 14,700  Level Boston Center
02:10PM 43.6846 -73.4462 195° South  Level FlightAware Approximate
02:10PM 43.9894 -73.2828 197° South 308 354 16,400  Level Boston Center
02:11PM 43.9017 -73.3189 197° South 329 379 18,000 1,620 Climbing Boston Center
02:12PM 43.8117 -73.3608 199° South 344 396 19,700 1,500 Climbing Boston Center
02:13PM 43.7156 -73.3994 196° South 350 403 21,000 1,260 Climbing Boston Center
02:14PM 43.6297 -73.4325 196° South 355 409 22,300 1,320 Climbing Boston Center
02:15PM 43.5336 -73.4739 197° South 360 414 23,700 1,260 Climbing Boston Center
02:16PM 43.4333 -73.5150 197° South 365 420 24,900 1,140 Climbing Boston Center
02:17PM 43.3369 -73.5561 197° South 365 420 26,000 540 Climbing Boston Center
02:18PM 43.2386 -73.6000 198° South 365 420 26,000  Level Boston Center
02:19PM 43.1403 -73.6408 197° South 365 420 26,000  Level Boston Center
02:20PM 43.0292 -73.6869 197° South 370 426 26,000  Level Boston Center
02:21PM 42.9328 -73.7275 197° South 370 426 26,000  Level Boston Center
02:22PM 42.8344 -73.7681 197° South 365 420 26,000  Level Boston Center
02:23PM 42.7400 -73.8169 201° Southwest 365 420 26,000  Level Boston Center
02:24PM 42.6847 -73.9231 235° Southwest 354 407 26,000  Level Boston Center
02:25PM 42.6331 -74.0375 238° Southwest 348 400 26,000  Level Boston Center
02:26PM 42.5814 -74.1517 238° Southwest 355 409 26,000  Level Boston Center
02:27PM 42.5275 -74.2628 237° Southwest 360 414 26,000  Level Boston Center
02:28PM 42.4736 -74.3711 236° Southwest 360 414 26,000  Level Boston Center
02:29PM 42.4175 -74.4792 235° Southwest 360 414 26,000  Level Boston Center
02:30PM 42.3633 -74.5897 236° Southwest 360 414 26,000  Level Boston Center
02:31PM 42.3069 -74.7028 236° Southwest 365 420 26,000 -540 Level Boston Center
02:32PM 42.2525 -74.8131 236° Southwest 365 420 25,000 -1,560 Descending Boston Center
02:34PM 42.0861 -75.0353 225° Southwest 343 395 20,700 -1,740 Descending New York Center
02:35PM 42.0003 -75.1050 211° Southwest 357 411 19,200 -840 Descending New York Center
02:36PM 41.9231 -75.1725 213° Southwest 358 412 19,000 -120 Descending New York Center
02:37PM 41.8500 -75.2289 210° Southwest 345 397 19,000 -540 Level New York Center
02:38PM 41.7728 -75.2931 212° Southwest 340 391 18,000 -1,320 Descending New York Center
02:39PM 41.6889 -75.3597 211° Southwest 330 380 16,400 -1,620 Descending New York Center
02:40PM 41.6158 -75.4158 210° Southwest 324 373 14,800 -1,560 Descending New York Center
02:41PM 41.5492 -75.4719 212° Southwest 312 359 13,300 -1,380 Descending New York Center
02:42PM 41.4847 -75.5231 211° Southwest 307 353 12,100 -720 Descending New York Center
02:43PM 41.4072 -75.5839 210° Southwest 302 348 12,000 -60 Descending New York Center
02:44PM 41.3361 -75.6394 210° Southwest 307 353 12,000  Level New York Center
02:45PM 41.2656 -75.6869 207° Southwest 301 346 12,000 -480 Level New York Center
02:46PM 41.1842 -75.6892 181° South 290 334 11,100 -900 Descending New York Center
02:47PM 41.1114 -75.6894 180° South 290 334 10,200 -600 Descending New York Center
02:48PM 41.0300 -75.6892 180° South 290 334 10,000 -120 Descending New York Center
02:49PM 40.9425 -75.6883 180° South 290 334 10,000  Level New York Center
02:50PM 40.8675 -75.6883 180° South 290 334 10,000  Level New York Center
02:51PM 40.7969 -75.6858 178° South 290 334 10,000  Level New York Center
02:52PM 40.7178 -75.6858 180° South 290 334 10,000  Level New York Center
02:53PM 40.6342 -75.6881 181° South 290 334 10,000  Level New York Center
02:54PM 40.5667 -75.6586 162° South 264 304 10,000  Level New York Center
02:55PM 40.5264 -75.5764 123° Southeast 257 296 10,000 -540 Level New York Center
02:56PM 40.4819 -75.4889 124° Southeast 274 315 9,000 -540 Descending New York Center
02:57PM 40.4217 -75.4300 143° Southeast 280 322 9,000 -420 Level New York Center
02:58PM 40.3586 -75.4422 188° South 226 260 8,200 -1,200 Descending New York Center
02:59PM 40.3003 -75.4436 181° South 221 254 6,700 -1,500 Descending New York Center
03:00PM 40.2533 -75.4189 158° South 208 239 5,300 -1,320 Descending New York Center
03:01PM 40.1897 -75.3900 161° South 219 252 4,100 -720 Descending New York Center
03:02PM 40.1408 -75.3650 159° South 212 244 4,000 -540 Descending New York Center
03:03PM 40.0958 -75.3431 160° South 193 222 3,100 -780 Descending New York Center
03:04PM 40.0528 -75.3239 161° South 172 198 2,500 -360 Descending New York Center
03:05PM 40.0167 -75.3000 153° Southeast 158 182 2,500 -300 Level Philadelphia TRACON
03:06PM 39.9833 -75.2833 159° South 126 145 2,000 -600 Descending Philadelphia TRACON
03:07PM 39.9500 -75.2667 159° South 119 137 1,400 -660 Descending Philadelphia TRACON
03:08PM 39.9167 -75.2500 159° South 127 146 700 -660 Descending Philadelphia TRACON
03:10PM 39.8667 -75.2333 166° South  Level FlightAware Approximate